Time;durP1;ratioP1;P1;durP2;ratioP2;P2;SDS_P1;SDS_P2;PMS_P1;PMS_P2;Temp;Humidity;BMP_temperature;BMP_pressure;BME280_temperature;BME280_humidity;BME280_pressure;Samples;Min_cycle;Max_cycle;Signal;HPM_P1;HPM_P2
2024/02/11 00:00:50;;;;;;;40.83;25.95;;;11.20;99.90;;;;;;5048028;28;20057;-70
2024/02/11 00:03:37;;;;;;;37.55;25.20;;;11.20;99.90;;;;;;5041577;28;20045;-71
2024/02/11 00:06:24;;;;;;;36.95;23.55;;;11.20;99.90;;;;;;5043758;28;20082;-70
2024/02/11 00:09:10;;;;;;;39.80;26.65;;;11.20;99.90;;;;;;5046310;28;20389;-70
2024/02/11 00:11:56;;;;;;;45.00;28.02;;;11.20;99.90;;;;;;5043281;28;20033;-70
2024/02/11 00:14:42;;;;;;;41.53;27.00;;;11.20;99.90;;;;;;5051428;28;20033;-70
2024/02/11 00:17:28;;;;;;;42.15;27.50;;;11.30;99.90;;;;;;5050191;28;20044;-71
2024/02/11 00:20:15;;;;;;;43.38;26.52;;;11.30;99.90;;;;;;5050182;28;20025;-70
2024/02/11 00:23:01;;;;;;;41.20;26.55;;;11.30;99.90;;;;;;5048382;28;20029;-71
2024/02/11 00:25:47;;;;;;;40.05;27.33;;;11.20;99.90;;;;;;5047559;28;20107;-70
2024/02/11 00:28:33;;;;;;;40.65;28.40;;;11.20;99.90;;;;;;5051204;28;20048;-70
2024/02/11 00:31:19;;;;;;;45.88;29.08;;;11.20;99.90;;;;;;5039590;28;20043;-71
2024/02/11 00:34:05;;;;;;;42.28;27.33;;;11.20;99.90;;;;;;5047477;28;20128;-71
2024/02/11 00:36:51;;;;;;;41.60;27.20;;;11.20;99.90;;;;;;5051440;28;20112;-70
2024/02/11 00:39:37;;;;;;;42.53;28.73;;;11.20;99.90;;;;;;5051544;28;20037;-70
2024/02/11 00:42:27;;;;;;;46.60;30.25;;;11.30;99.90;;;;;;5047007;28;20602;-70
2024/02/11 00:45:13;;;;;;;44.75;29.08;;;11.20;99.90;;;;;;5045442;28;20143;-70
2024/02/11 00:48:03;;;;;;;46.10;28.73;;;11.20;99.90;;;;;;5028989;28;20049;-70
2024/02/11 00:50:49;;;;;;;41.38;28.70;;;11.20;99.90;;;;;;5042872;28;20029;-70
2024/02/11 00:53:36;;;;;;;43.00;29.00;;;11.10;99.90;;;;;;5045038;28;20389;-70
2024/02/11 00:56:21;;;;;;;45.92;29.52;;;11.10;99.90;;;;;;5050345;28;20075;-70
2024/02/11 00:59:08;;;;;;;48.88;31.67;;;11.10;99.90;;;;;;5048022;28;20189;-70
2024/02/11 01:01:53;;;;;;;49.95;31.95;;;11.10;99.90;;;;;;5036002;28;20052;-70
2024/02/11 01:04:39;;;;;;;44.70;29.05;;;11.10;99.90;;;;;;5046739;28;20036;-70
2024/02/11 01:07:25;;;;;;;48.25;31.17;;;11.10;99.90;;;;;;5037632;28;20115;-71
2024/02/11 01:10:12;;;;;;;47.97;29.65;;;11.10;99.90;;;;;;5043833;28;20056;-71
2024/02/11 01:12:58;;;;;;;48.42;29.33;;;11.10;99.90;;;;;;5053900;28;20033;-70
2024/02/11 01:15:44;;;;;;;51.60;32.17;;;11.10;99.90;;;;;;5071784;28;20025;-69
2024/02/11 01:18:30;;;;;;;46.17;27.63;;;11.10;99.90;;;;;;5064528;28;20064;-70
2024/02/11 01:21:16;;;;;;;49.58;30.88;;;11.00;99.90;;;;;;5053069;28;20040;-70
2024/02/11 01:24:02;;;;;;;58.30;32.88;;;11.00;99.90;;;;;;5042746;28;20072;-71
2024/02/11 01:26:48;;;;;;;51.80;32.47;;;11.00;99.90;;;;;;5023581;28;20069;-70
2024/02/11 01:29:38;;;;;;;53.40;33.70;;;11.00;99.90;;;;;;5027567;28;20037;-70
2024/02/11 01:32:24;;;;;;;55.10;34.78;;;11.00;99.90;;;;;;5016050;28;20057;-70
2024/02/11 01:35:12;;;;;;;54.22;33.33;;;11.00;99.90;;;;;;5047005;28;20033;-70
2024/02/11 01:38:00;;;;;;;55.85;32.05;;;11.00;99.90;;;;;;5047520;28;20029;-70
2024/02/11 01:40:46;;;;;;;53.95;31.90;;;11.00;99.90;;;;;;5049811;28;20064;-70
2024/02/11 01:43:33;;;;;;;51.13;31.83;;;10.90;99.90;;;;;;5042489;28;20036;-71
2024/02/11 01:46:20;;;;;;;54.40;33.70;;;10.90;99.90;;;;;;5050303;28;20028;-69
2024/02/11 01:49:06;;;;;;;56.67;36.33;;;10.90;99.90;;;;;;5049937;28;20048;-69
2024/02/11 01:51:54;;;;;;;52.85;32.38;;;10.90;99.90;;;;;;5048138;28;20037;-69
2024/02/11 01:54:41;;;;;;;51.22;31.50;;;10.90;99.90;;;;;;5050202;28;20037;-69
2024/02/11 01:57:27;;;;;;;61.53;34.15;;;10.90;99.90;;;;;;5049070;28;20033;-69
2024/02/11 02:00:13;;;;;;;53.25;32.45;;;10.90;99.90;;;;;;5047244;28;20132;-69
2024/02/11 02:03:00;;;;;;;55.20;33.38;;;10.80;99.90;;;;;;5050095;28;20075;-69
2024/02/11 02:05:46;;;;;;;56.35;35.03;;;10.80;99.90;;;;;;5045101;28;20029;-69
2024/02/11 02:08:32;;;;;;;55.08;32.40;;;10.80;99.90;;;;;;5049508;28;20389;-69
2024/02/11 02:11:18;;;;;;;51.92;31.45;;;10.80;99.90;;;;;;5050429;28;20033;-70
2024/02/11 02:14:05;;;;;;;56.78;31.00;;;10.80;99.90;;;;;;5049852;28;20036;-69
2024/02/11 02:16:51;;;;;;;49.83;30.70;;;10.80;99.90;;;;;;5050170;28;20033;-69
2024/02/11 02:19:37;;;;;;;54.58;31.73;;;10.80;99.90;;;;;;5046109;28;20029;-69
2024/02/11 02:22:23;;;;;;;58.25;32.45;;;10.80;99.90;;;;;;5040916;28;20033;-70
2024/02/11 02:25:09;;;;;;;49.58;30.80;;;10.80;99.90;;;;;;5049458;28;20456;-69
2024/02/11 02:27:55;;;;;;;56.05;32.00;;;10.80;99.90;;;;;;5040075;28;20049;-69
2024/02/11 02:30:41;;;;;;;54.42;32.13;;;10.80;99.90;;;;;;5049050;28;20534;-69
2024/02/11 02:33:28;;;;;;;53.67;31.10;;;10.70;99.90;;;;;;5049507;28;20037;-68
2024/02/11 02:36:17;;;;;;;52.45;30.80;;;10.70;99.90;;;;;;5049183;28;20072;-69
2024/02/11 02:39:03;;;;;;;54.10;31.02;;;10.70;99.90;;;;;;5039783;28;20033;-69
2024/02/11 02:41:49;;;;;;;51.67;30.65;;;10.70;99.90;;;;;;5045900;28;20036;-69
2024/02/11 02:44:37;;;;;;;49.72;30.67;;;10.60;99.90;;;;;;5049603;28;20048;-70
2024/02/11 02:47:23;;;;;;;50.78;30.33;;;10.60;99.90;;;;;;5049943;28;20044;-69
2024/02/11 02:50:09;;;;;;;47.40;30.10;;;10.60;99.90;;;;;;5049199;28;20029;-69
2024/02/11 02:52:55;;;;;;;52.38;31.67;;;10.60;99.90;;;;;;5041050;28;20044;-71
2024/02/11 02:55:41;;;;;;;53.58;32.20;;;10.60;99.90;;;;;;5039784;28;20108;-70
2024/02/11 02:58:27;;;;;;;55.80;31.33;;;10.60;99.90;;;;;;5037293;28;20048;-70
2024/02/11 03:01:22;;;;;;;52.60;31.33;;;10.60;99.90;;;;;;5043202;28;20045;-70
2024/02/11 03:04:10;;;;;;;;;;;10.60;99.90;;;;;;5044655;28;20037;-70
2024/02/11 03:06:56;;;;;;;57.10;33.33;;;10.60;99.90;;;;;;5037049;28;19909;-71
2024/02/11 03:09:42;;;;;;;58.17;32.92;;;10.50;99.90;;;;;;5049360;28;20041;-69
2024/02/11 03:12:28;;;;;;;55.83;31.15;;;10.50;99.90;;;;;;5047948;28;20546;-69
2024/02/11 03:15:15;;;;;;;56.28;33.80;;;10.50;99.90;;;;;;5048418;28;20123;-70
2024/02/11 03:18:01;;;;;;;53.90;29.63;;;10.50;99.90;;;;;;5028873;28;20037;-74
2024/02/11 03:20:48;;;;;;;59.05;32.58;;;10.50;99.90;;;;;;5029413;28;20033;-71
2024/02/11 03:23:35;;;;;;;52.85;31.17;;;10.50;99.90;;;;;;5037333;28;20033;-69
2024/02/11 03:26:21;;;;;;;62.85;33.80;;;10.50;99.90;;;;;;5040232;28;20037;-72
2024/02/11 03:29:08;;;;;;;55.40;32.20;;;10.50;99.90;;;;;;5048794;28;20037;-72
2024/02/11 03:31:54;;;;;;;57.35;31.45;;;10.50;99.90;;;;;;5047005;28;20132;-71
2024/02/11 03:34:40;;;;;;;61.55;32.47;;;10.50;99.90;;;;;;5048537;28;20167;-70
2024/02/11 03:37:29;;;;;;;55.95;31.02;;;10.40;99.90;;;;;;5049576;28;20083;-70
2024/02/11 03:40:16;;;;;;;57.00;33.40;;;10.40;99.90;;;;;;5034479;28;20087;-71
2024/02/11 03:43:02;;;;;;;55.22;30.23;;;10.40;99.90;;;;;;5044282;28;20036;-70
2024/02/11 03:45:49;;;;;;;51.55;29.52;;;10.50;99.90;;;;;;5052399;28;20028;-69
2024/02/11 03:48:36;;;;;;;51.63;29.58;;;10.40;99.90;;;;;;5052408;28;20083;-69
2024/02/11 03:51:23;;;;;;;57.65;31.58;;;10.40;99.90;;;;;;5051898;28;20093;-69
2024/02/11 03:54:09;;;;;;;56.75;31.75;;;10.40;99.90;;;;;;5041759;28;20068;-69
2024/02/11 03:56:55;;;;;;;52.30;29.42;;;10.40;99.90;;;;;;5050767;28;20036;-69
2024/02/11 03:59:45;;;;;;;57.20;30.52;;;10.40;99.90;;;;;;5041931;28;20037;-68
2024/02/11 04:02:34;;;;;;;55.30;29.95;;;10.40;99.90;;;;;;5052691;28;20477;-69
2024/02/11 04:05:22;;;;;;;57.63;32.53;;;10.40;99.90;;;;;;5052489;28;20025;-69
2024/02/11 04:08:08;;;;;;;54.50;32.08;;;10.40;99.90;;;;;;5049295;28;20041;-69
2024/02/11 04:10:54;;;;;;;54.00;29.40;;;10.40;99.90;;;;;;5052466;28;20388;-68
2024/02/11 04:13:40;;;;;;;53.05;30.08;;;10.40;99.90;;;;;;5052007;28;20087;-70
2024/02/11 04:16:26;;;;;;;50.80;28.77;;;10.40;99.90;;;;;;5050057;28;20517;-70
2024/02/11 04:19:12;;;;;;;53.22;28.77;;;10.40;99.90;;;;;;5049741;28;20078;-73
2024/02/11 04:21:58;;;;;;;52.83;27.90;;;10.40;99.90;;;;;;5031167;28;20444;-72
2024/02/11 04:24:45;;;;;;;53.53;28.95;;;10.40;99.90;;;;;;5044684;28;20037;-73
2024/02/11 04:27:31;;;;;;;54.05;30.85;;;10.40;99.90;;;;;;5045387;28;20128;-73
2024/02/11 04:30:19;;;;;;;47.38;28.25;;;10.30;99.90;;;;;;5051950;28;20036;-72
2024/02/11 04:33:06;;;;;;;53.28;30.38;;;10.30;99.90;;;;;;5074669;28;20025;-72
2024/02/11 04:35:52;;;;;;;53.05;28.33;;;10.40;99.90;;;;;;5072155;28;20092;-72
2024/02/11 04:38:38;;;;;;;58.47;28.20;;;10.40;99.90;;;;;;5046098;28;20029;-72
2024/02/11 04:41:24;;;;;;;50.67;29.20;;;10.40;99.90;;;;;;5045371;28;20025;-73
2024/02/11 04:44:11;;;;;;;56.13;30.75;;;10.40;99.90;;;;;;5034425;28;20048;-72
2024/02/11 04:47:00;;;;;;;55.85;30.65;;;10.40;99.90;;;;;;5033437;28;20037;-73
2024/02/11 04:49:47;;;;;;;54.55;31.38;;;10.40;99.90;;;;;;5040918;28;20591;-72
2024/02/11 04:52:33;;;;;;;54.53;29.70;;;10.40;99.90;;;;;;5025724;28;20036;-72
2024/02/11 04:55:27;;;;;;;55.83;31.65;;;10.40;99.90;;;;;;5036007;28;20024;-72
2024/02/11 04:58:18;;;;;;;51.33;29.92;;;10.40;99.90;;;;;;5038651;28;20081;-73
2024/02/11 05:01:04;;;;;;;57.63;31.20;;;10.40;99.90;;;;;;5041005;28;20083;-72
2024/02/11 05:03:51;;;;;;;51.67;28.63;;;10.40;99.90;;;;;;5031593;28;20029;-72
2024/02/11 05:06:40;;;;;;;54.35;29.60;;;10.40;99.90;;;;;;5042601;28;20223;-72
2024/02/11 05:09:32;;;;;;;49.97;28.33;;;10.40;99.90;;;;;;5049067;28;20108;-72
2024/02/11 05:12:22;;;;;;;51.55;28.98;;;10.40;99.90;;;;;;5054497;28;20036;-74
2024/02/11 05:15:08;;;;;;;53.50;31.00;;;10.40;99.90;;;;;;5040362;28;20074;-74
2024/02/11 05:17:54;;;;;;;50.25;30.52;;;10.40;99.90;;;;;;5030162;28;20552;-73
2024/02/11 05:20:41;;;;;;;55.90;29.42;;;10.40;99.90;;;;;;5031918;28;20076;-73
2024/02/11 05:23:29;;;;;;;51.75;29.20;;;10.30;99.90;;;;;;5059599;28;20041;-74
2024/02/11 05:26:17;;;;;;;58.60;30.63;;;10.30;99.90;;;;;;5047967;28;20124;-75
2024/02/11 05:29:03;;;;;;;51.85;29.83;;;10.30;99.90;;;;;;5029048;28;20049;-74
2024/02/11 05:31:50;;;;;;;52.63;30.90;;;10.40;99.90;;;;;;5040959;28;20029;-74
2024/02/11 05:34:38;;;;;;;49.10;27.88;;;10.40;99.90;;;;;;5051032;28;20131;-74
2024/02/11 05:37:24;;;;;;;51.20;31.25;;;10.40;99.90;;;;;;5049534;28;20035;-74
2024/02/11 05:40:15;;;;;;;47.90;28.40;;;10.40;99.90;;;;;;5050372;28;20044;-74
2024/02/11 05:43:03;;;;;;;58.92;31.42;;;10.40;99.90;;;;;;5045571;28;20024;-70
2024/02/11 05:45:49;;;;;;;46.70;28.30;;;10.40;99.90;;;;;;5055039;28;20473;-70
2024/02/11 05:48:35;;;;;;;54.95;30.77;;;10.40;99.90;;;;;;5039127;28;20041;-70
2024/02/11 05:51:21;;;;;;;55.85;30.85;;;10.40;99.90;;;;;;5031660;28;20114;-70
2024/02/11 05:54:07;;;;;;;53.25;30.27;;;10.30;99.90;;;;;;5044262;28;20684;-70
2024/02/11 05:56:53;;;;;;;55.13;29.35;;;10.30;99.90;;;;;;5048952;28;20037;-70
2024/02/11 05:59:40;;;;;;;49.60;30.20;;;10.30;99.90;;;;;;5047973;28;20025;-70
2024/02/11 06:02:26;;;;;;;50.65;29.83;;;10.30;99.90;;;;;;5050085;28;20054;-70
2024/02/11 06:05:13;;;;;;;57.10;32.22;;;10.40;99.90;;;;;;5048626;28;20033;-70
2024/02/11 06:08:00;;;;;;;57.30;31.92;;;10.30;99.90;;;;;;5045870;28;20128;-70
2024/02/11 06:10:46;;;;;;;57.80;30.80;;;10.30;99.90;;;;;;5041024;28;20040;-70
2024/02/11 06:13:32;;;;;;;56.70;30.75;;;10.30;99.90;;;;;;5033086;28;20098;-70
2024/02/11 06:16:18;;;;;;;58.33;31.10;;;10.30;99.90;;;;;;5038558;28;20784;-69
2024/02/11 06:19:04;;;;;;;58.90;31.75;;;10.20;99.90;;;;;;5049703;28;20087;-69
2024/02/11 06:21:51;;;;;;;59.15;31.88;;;10.30;99.90;;;;;;5040330;28;20484;-69
2024/02/11 06:24:37;;;;;;;51.20;30.98;;;10.30;99.90;;;;;;5049872;28;20123;-70
2024/02/11 06:27:23;;;;;;;56.47;32.80;;;10.30;99.90;;;;;;5036216;28;20052;-70
2024/02/11 06:30:13;;;;;;;56.65;29.15;;;10.20;99.90;;;;;;5041014;28;20098;-70
2024/02/11 06:32:59;;;;;;;59.67;32.72;;;10.20;99.90;;;;;;5045447;28;20065;-70
2024/02/11 06:35:45;;;;;;;62.65;31.25;;;10.10;99.90;;;;;;5046388;28;20033;-69
2024/02/11 06:38:31;;;;;;;67.00;34.05;;;10.10;99.90;;;;;;5047163;28;20044;-70
2024/02/11 06:41:18;;;;;;;55.50;31.38;;;10.00;99.90;;;;;;5041484;28;20123;-70
2024/02/11 06:44:06;;;;;;;65.72;33.60;;;10.00;99.90;;;;;;5048413;28;20029;-70
2024/02/11 06:46:55;;;;;;;62.28;31.50;;;10.00;99.90;;;;;;5041878;28;20543;-70
2024/02/11 06:49:40;;;;;;;62.20;31.73;;;10.00;99.90;;;;;;5041294;28;20611;-70
2024/02/11 06:52:27;;;;;;;59.03;33.67;;;10.00;99.90;;;;;;5043528;28;20170;-70
2024/02/11 06:55:18;;;;;;;65.97;31.38;;;10.00;99.90;;;;;;5032211;28;20037;-70
2024/02/11 06:58:06;;;;;;;65.22;32.15;;;10.00;99.90;;;;;;5038323;28;20028;-74
2024/02/11 07:00:53;;;;;;;59.25;30.23;;;9.90;99.90;;;;;;5048563;28;20091;-73
2024/02/11 07:03:39;;;;;;;58.85;32.33;;;9.90;99.90;;;;;;5035203;28;20109;-73
2024/02/11 07:06:24;;;;;;;57.17;29.35;;;9.90;99.90;;;;;;5049359;28;20227;-73
2024/02/11 07:09:17;;;;;;;60.88;31.75;;;9.90;99.90;;;;;;5044509;28;20092;-73
2024/02/11 07:12:06;;;;;;;58.70;31.58;;;9.90;99.90;;;;;;5047901;28;20096;-73
2024/02/11 07:14:52;;;;;;;61.50;29.85;;;9.90;99.90;;;;;;5034438;28;20098;-74
2024/02/11 07:17:41;;;;;;;55.80;31.20;;;9.90;99.90;;;;;;5039782;28;20029;-73
2024/02/11 07:20:26;;;;;;;62.30;31.60;;;9.90;99.90;;;;;;5048397;28;20108;-73
2024/02/11 07:23:13;;;;;;;57.30;30.95;;;9.90;99.90;;;;;;5048373;28;20041;-72
2024/02/11 07:25:59;;;;;;;58.58;30.40;;;9.80;99.90;;;;;;5035268;28;20477;-72
2024/02/11 07:28:48;;;;;;;56.65;30.35;;;9.90;99.90;;;;;;5041732;28;20040;-72
2024/02/11 07:31:35;;;;;;;59.80;31.17;;;9.90;99.90;;;;;;5037936;28;20512;-72
2024/02/11 07:34:21;;;;;;;60.83;32.20;;;9.80;99.90;;;;;;5048274;28;20044;-72
2024/02/11 07:37:07;;;;;;;68.13;32.42;;;9.80;99.90;;;;;;5048729;28;20033;-72
2024/02/11 07:39:54;;;;;;;65.40;32.50;;;9.90;99.90;;;;;;5033911;28;20086;-73
2024/02/11 07:42:40;;;;;;;53.55;28.33;;;9.80;99.90;;;;;;5041351;28;22916;-73
2024/02/11 07:45:27;;;;;;;63.85;31.25;;;9.80;99.90;;;;;;5046867;28;20036;-73
2024/02/11 07:48:13;;;;;;;52.97;28.45;;;9.80;99.90;;;;;;5059684;28;20040;-72
2024/02/11 07:50:59;;;;;;;58.67;30.15;;;9.90;99.90;;;;;;5061909;28;20033;-73
2024/02/11 07:53:49;;;;;;;58.38;29.40;;;9.90;99.90;;;;;;5057043;28;20074;-72
2024/02/11 07:56:36;;;;;;;61.13;33.03;;;9.90;99.90;;;;;;5044906;28;20254;-72
2024/02/11 07:59:22;;;;;;;58.13;28.90;;;9.90;99.90;;;;;;5037860;28;20068;-73
2024/02/11 08:02:08;;;;;;;52.60;28.05;;;9.90;99.90;;;;;;5049836;28;20033;-75
2024/02/11 08:04:54;;;;;;;56.97;30.58;;;9.80;99.90;;;;;;5042480;28;20373;-74
2024/02/11 08:07:40;;;;;;;57.65;30.35;;;9.90;99.90;;;;;;5043184;28;20048;-71
2024/02/11 08:10:26;;;;;;;58.95;29.27;;;9.90;99.90;;;;;;5038277;28;20095;-68
2024/02/11 08:13:12;;;;;;;57.58;32.03;;;9.90;99.90;;;;;;5033923;28;20123;-68
2024/02/11 08:16:07;;;;;;;57.65;30.80;;;9.90;99.90;;;;;;5041267;28;20082;-66
2024/02/11 08:18:54;;;;;;;59.93;31.90;;;10.00;99.90;;;;;;5033225;28;20063;-67
2024/02/11 08:21:40;;;;;;;58.15;29.05;;;10.00;99.90;;;;;;5046541;28;20108;-67
2024/02/11 08:24:26;;;;;;;57.55;31.10;;;9.90;99.90;;;;;;5046257;28;20044;-66
2024/02/11 08:27:12;;;;;;;58.63;29.80;;;9.90;99.90;;;;;;5040498;28;20077;-66
2024/02/11 08:29:58;;;;;;;61.45;30.70;;;9.90;99.90;;;;;;5045750;28;20029;-66
2024/02/11 08:32:44;;;;;;;55.90;28.52;;;9.90;99.90;;;;;;5051806;28;20685;-66
2024/02/11 08:35:31;;;;;;;56.88;29.85;;;10.00;99.90;;;;;;5052055;28;20040;-66
2024/02/11 08:38:17;;;;;;;58.60;30.65;;;9.90;99.90;;;;;;5048585;28;20040;-66
2024/02/11 08:41:03;;;;;;;57.90;31.83;;;10.00;99.90;;;;;;5045374;28;20091;-66
2024/02/11 08:43:49;;;;;;;60.70;32.85;;;10.00;99.90;;;;;;5033145;28;20040;-66
2024/02/11 08:46:36;;;;;;;53.47;29.50;;;9.90;99.90;;;;;;5043562;28;20104;-66
2024/02/11 08:49:21;;;;;;;56.70;31.35;;;10.00;99.90;;;;;;5049723;28;20049;-66
2024/02/11 08:52:08;;;;;;;61.50;32.33;;;10.00;99.90;;;;;;5058127;28;20021;-66
2024/02/11 08:54:53;;;;;;;53.95;30.77;;;10.00;99.90;;;;;;5051924;28;20056;-66
2024/02/11 08:57:39;;;;;;;58.63;29.40;;;10.00;99.90;;;;;;5049535;28;20025;-66
2024/02/11 09:00:26;;;;;;;55.35;28.67;;;10.00;99.90;;;;;;5049969;28;20049;-67
2024/02/11 09:05:48;;;;;;;57.65;30.15;;;10.00;99.90;;;;;;5261082;22;20063;-65
2024/02/11 09:08:34;;;;;;;59.60;32.47;;;10.00;99.90;;;;;;5086060;28;20036;-65
2024/02/11 09:11:20;;;;;;;58.72;30.27;;;10.00;99.90;;;;;;5455589;22;20078;-72
2024/02/11 09:14:06;;;;;;;61.17;33.17;;;10.10;99.90;;;;;;5079972;28;20086;-72
2024/02/11 09:16:52;;;;;;;61.78;34.03;;;10.10;99.90;;;;;;5074450;28;20263;-73
2024/02/11 09:19:38;;;;;;;56.53;31.35;;;10.10;99.90;;;;;;5082855;28;20055;-72
2024/02/11 09:22:26;;;;;;;64.63;32.78;;;10.10;99.90;;;;;;5089602;28;20028;-72
2024/02/11 09:25:13;;;;;;;64.50;32.83;;;10.10;99.90;;;;;;5073002;28;20606;-72
2024/02/11 09:28:00;;;;;;;58.53;31.98;;;10.10;99.90;;;;;;5077773;28;20476;-72
2024/02/11 09:30:46;;;;;;;58.30;31.75;;;10.10;99.90;;;;;;5091917;28;20034;-71
2024/02/11 09:33:31;;;;;;;55.67;29.33;;;10.10;99.90;;;;;;5088853;28;20032;-72
2024/02/11 09:36:17;;;;;;;57.30;32.25;;;10.10;99.90;;;;;;5093215;28;20031;-72
2024/02/11 09:39:03;;;;;;;59.72;33.78;;;10.10;99.90;;;;;;5078200;28;20060;-71
2024/02/11 09:41:50;;;;;;;59.47;31.48;;;10.10;99.90;;;;;;5070734;28;20098;-73
2024/02/11 09:44:38;;;;;;;61.92;33.88;;;10.20;99.90;;;;;;5070384;28;20783;-73
2024/02/11 09:47:25;;;;;;;60.65;31.17;;;10.20;99.90;;;;;;5075713;28;20067;-73
2024/02/11 09:50:12;;;;;;;59.78;31.52;;;10.20;99.90;;;;;;5088782;28;20055;-71
2024/02/11 09:52:58;;;;;;;57.95;32.88;;;10.20;99.90;;;;;;5090439;28;20410;-70
2024/02/11 09:55:45;;;;;;;59.25;33.13;;;10.20;99.90;;;;;;5085556;28;20028;-71
2024/02/11 09:58:31;;;;;;;60.92;32.55;;;10.20;99.90;;;;;;5072558;28;20036;-69
2024/02/11 10:01:17;;;;;;;55.97;30.60;;;10.20;99.90;;;;;;5090218;28;20501;-69
2024/02/11 10:04:06;;;;;;;51.50;28.88;;;10.30;99.90;;;;;;5075747;28;20055;-69
2024/02/11 10:06:52;;;;;;;48.75;27.60;;;10.30;99.90;;;;;;5075482;28;20032;-69
2024/02/11 10:09:38;;;;;;;61.50;33.55;;;10.30;99.90;;;;;;5091890;28;20029;-69
2024/02/11 10:12:25;;;;;;;55.28;29.33;;;10.30;99.90;;;;;;5088094;28;20052;-70
2024/02/11 10:15:15;;;;;;;51.58;28.83;;;10.30;99.90;;;;;;5070808;28;20037;-69
2024/02/11 10:18:06;;;;;;;51.35;28.38;;;10.30;99.90;;;;;;5072471;28;20476;-69
2024/02/11 10:20:52;;;;;;;44.55;26.88;;;10.30;99.90;;;;;;5074205;28;20406;-69
2024/02/11 10:23:43;;;;;;;48.38;28.65;;;10.20;99.90;;;;;;5066107;28;20035;-69
2024/02/11 10:26:31;;;;;;;49.60;26.50;;;10.30;99.90;;;;;;5076478;28;20035;-69
2024/02/11 10:29:18;;;;;;;46.78;25.65;;;10.30;99.90;;;;;;5060073;28;20114;-69
2024/02/11 10:32:08;;;;;;;47.20;25.67;;;10.30;99.90;;;;;;5078403;28;20606;-70
2024/02/11 10:34:55;;;;;;;41.22;24.67;;;10.30;99.90;;;;;;5074402;28;20119;-69
2024/02/11 10:37:43;;;;;;;41.38;23.30;;;10.30;99.90;;;;;;5084932;28;20028;-69
2024/02/11 10:40:29;;;;;;;41.33;24.13;;;10.30;99.90;;;;;;5062474;28;20043;-69
2024/02/11 10:43:18;;;;;;;37.88;24.38;;;10.30;99.90;;;;;;5095513;28;20060;-69
2024/02/11 10:46:04;;;;;;;48.17;24.80;;;10.30;99.90;;;;;;5104305;28;20028;-68
2024/02/11 10:48:50;;;;;;;37.17;24.65;;;10.30;99.90;;;;;;5070168;28;20040;-69
2024/02/11 10:51:41;;;;;;;42.97;26.90;;;10.30;99.90;;;;;;5075224;28;20032;-69
2024/02/11 10:54:31;;;;;;;39.60;25.73;;;10.30;99.90;;;;;;5085882;28;20031;-69
2024/02/11 10:57:20;;;;;;;39.15;22.42;;;10.40;99.90;;;;;;5083264;28;20032;-69
2024/02/11 11:00:08;;;;;;;41.33;24.02;;;10.30;99.90;;;;;;5074404;28;20124;-69
2024/02/11 11:03:06;;;;;;;40.55;22.98;;;10.40;99.90;;;;;;5072405;28;20028;-69
2024/02/11 11:05:54;;;;;;;41.17;23.17;;;10.40;99.90;;;;;;5074646;28;20104;-69
2024/02/11 11:08:43;;;;;;;38.50;24.00;;;10.40;99.90;;;;;;5083687;28;20032;-69
2024/02/11 11:11:29;;;;;;;44.65;24.58;;;10.40;99.90;;;;;;5070202;28;20055;-69
2024/02/11 11:14:19;;;;;;;48.05;23.85;;;10.30;99.90;;;;;;5077660;28;20088;-70
2024/02/11 11:17:05;;;;;;;41.92;23.67;;;10.30;99.90;;;;;;5080719;28;20024;-69
2024/02/11 11:19:52;;;;;;;39.80;22.85;;;10.30;99.90;;;;;;5074092;28;20471;-69
2024/02/11 11:22:40;;;;;;;44.55;24.70;;;10.30;99.90;;;;;;5062991;28;20510;-70
2024/02/11 11:25:31;;;;;;;39.33;23.02;;;10.30;99.90;;;;;;5080827;28;20033;-70
2024/02/11 11:28:18;;;;;;;46.13;26.83;;;10.30;99.90;;;;;;5082214;28;20165;-72
2024/02/11 11:31:05;;;;;;;47.40;25.80;;;10.40;99.90;;;;;;5070462;28;20036;-72
2024/02/11 11:33:52;;;;;;;42.28;24.90;;;10.30;99.90;;;;;;5062958;28;20047;-72
2024/02/11 11:36:38;;;;;;;51.33;26.63;;;10.40;99.90;;;;;;5068607;28;20101;-72
2024/02/11 11:39:26;;;;;;;42.70;25.85;;;10.30;99.90;;;;;;5067657;28;20396;-67
2024/02/11 11:42:12;;;;;;;43.72;24.00;;;10.30;99.90;;;;;;5069887;28;20067;-67
2024/02/11 11:45:06;;;;;;;41.95;25.27;;;10.40;99.90;;;;;;5073980;28;20024;-67
2024/02/11 11:47:53;;;;;;;46.40;25.17;;;10.40;99.90;;;;;;5074417;28;20048;-67
2024/02/11 11:50:40;;;;;;;38.05;22.83;;;10.40;99.90;;;;;;5075939;28;20032;-65
2024/02/11 11:53:28;;;;;;;39.53;24.05;;;10.40;99.90;;;;;;5069319;28;20143;-66
2024/02/11 11:56:18;;;;;;;42.35;24.58;;;10.50;99.90;;;;;;5068250;28;20086;-65
2024/02/11 11:59:04;;;;;;;43.55;24.23;;;10.40;99.90;;;;;;5067084;28;20028;-65
2024/02/11 12:01:55;;;;;;;35.83;22.63;;;10.40;99.90;;;;;;5069830;28;20309;-65
2024/02/11 12:04:41;;;;;;;49.55;26.33;;;10.40;99.90;;;;;;5078844;28;20033;-66
2024/02/11 12:07:30;;;;;;;38.63;22.60;;;10.40;99.90;;;;;;5077213;28;20123;-65
2024/02/11 12:10:16;;;;;;;38.22;22.38;;;10.50;99.90;;;;;;5076873;28;20033;-62
2024/02/11 12:13:02;;;;;;;36.97;22.40;;;10.40;99.90;;;;;;5037576;28;20037;-62
2024/02/11 12:15:49;;;;;;;38.30;23.42;;;10.40;99.90;;;;;;5036313;28;20048;-62
2024/02/11 12:18:37;;;;;;;37.10;22.75;;;10.40;99.90;;;;;;5033783;28;20032;-63
2024/02/11 12:21:24;;;;;;;37.80;22.35;;;10.40;99.90;;;;;;5037571;28;20043;-63
2024/02/11 12:24:10;;;;;;;34.28;22.10;;;10.40;99.90;;;;;;5034442;28;20025;-63
2024/02/11 12:26:58;;;;;;;39.25;22.48;;;10.40;99.90;;;;;;5042897;28;20598;-64
2024/02/11 12:29:54;;;;;;;34.53;20.08;;;10.40;99.90;;;;;;5038461;28;20029;-63
2024/02/11 12:32:40;;;;;;;36.67;22.10;;;10.40;99.90;;;;;;5038741;28;20033;-64
2024/02/11 12:35:30;;;;;;;34.70;21.73;;;10.40;99.90;;;;;;5039081;28;20031;-64
2024/02/11 12:38:16;;;;;;;32.45;20.90;;;10.40;99.90;;;;;;5040771;28;20356;-64
2024/02/11 12:41:03;;;;;;;35.70;21.23;;;10.30;99.90;;;;;;5038257;28;20455;-64
2024/02/11 12:43:50;;;;;;;35.83;21.67;;;10.30;99.90;;;;;;5034520;28;20029;-64
2024/02/11 12:46:36;;;;;;;29.02;20.55;;;10.30;99.90;;;;;;5035502;28;20126;-64
2024/02/11 12:49:23;;;;;;;34.40;21.23;;;10.30;99.90;;;;;;5034571;28;20083;-64
2024/02/11 12:52:09;;;;;;;32.50;19.40;;;10.30;99.90;;;;;;5041345;28;20363;-63
2024/02/11 12:54:55;;;;;;;33.95;20.73;;;10.30;99.90;;;;;;5031753;28;20041;-63
2024/02/11 12:57:42;;;;;;;29.42;19.17;;;10.30;99.90;;;;;;5038520;28;20121;-63
2024/02/11 13:00:28;;;;;;;29.73;19.52;;;10.40;99.90;;;;;;5036172;28;20040;-63
2024/02/11 13:03:14;;;;;;;30.15;19.38;;;10.40;99.90;;;;;;5045563;28;20037;-64
2024/02/11 13:06:01;;;;;;;28.05;16.85;;;10.40;99.90;;;;;;5047658;28;20033;-63
2024/02/11 13:08:47;;;;;;;32.42;20.20;;;10.40;99.90;;;;;;5043673;28;20048;-63
2024/02/11 13:11:33;;;;;;;29.65;20.00;;;10.40;99.90;;;;;;5059648;28;20055;-64
2024/02/11 13:14:22;;;;;;;28.90;20.17;;;10.40;99.90;;;;;;5081548;28;20036;-64
2024/02/11 13:17:08;;;;;;;34.08;19.90;;;10.40;99.90;;;;;;5074364;28;20119;-63
2024/02/11 13:19:53;;;;;;;30.30;18.95;;;10.30;99.90;;;;;;5080088;28;20036;-63
2024/02/11 13:22:40;;;;;;;28.58;18.83;;;10.30;99.90;;;;;;5088773;28;20039;-63
2024/02/11 13:25:26;;;;;;;28.67;17.90;;;10.20;99.90;;;;;;5084975;28;20091;-64
2024/02/11 13:28:15;;;;;;;26.75;18.05;;;10.10;99.90;;;;;;5079318;28;20127;-64
2024/02/11 13:31:03;;;;;;;29.02;19.23;;;10.10;99.90;;;;;;5076268;28;22312;-64
2024/02/11 13:33:49;;;;;;;23.77;16.75;;;10.10;99.90;;;;;;5073740;28;20553;-63
2024/02/11 13:36:35;;;;;;;25.20;16.83;;;10.00;99.90;;;;;;5079941;28;20032;-64
2024/02/11 13:39:22;;;;;;;25.00;17.33;;;10.00;99.90;;;;;;5073368;28;20048;-63
2024/02/11 13:42:09;;;;;;;23.83;15.30;;;10.00;99.90;;;;;;5075046;28;20215;-63
2024/02/11 13:44:55;;;;;;;25.38;15.48;;;10.10;99.90;;;;;;5061205;28;20043;-63
2024/02/11 13:47:41;;;;;;;24.42;16.17;;;10.10;99.90;;;;;;5073877;28;20049;-64
2024/02/11 13:50:29;;;;;;;23.30;16.02;;;10.00;99.90;;;;;;5071331;28;20047;-64
2024/02/11 13:53:15;;;;;;;24.75;15.82;;;10.10;99.90;;;;;;5081885;28;20029;-64
2024/02/11 13:56:01;;;;;;;24.67;17.45;;;10.10;99.90;;;;;;5078133;28;20029;-64
2024/02/11 13:58:47;;;;;;;25.65;16.98;;;10.10;99.90;;;;;;5082440;28;20408;-64
2024/02/11 14:01:33;;;;;;;21.25;14.73;;;10.20;99.90;;;;;;5071748;28;20043;-64
2024/02/11 14:04:19;;;;;;;23.05;15.50;;;10.10;99.90;;;;;;5077307;28;20033;-64
2024/02/11 14:07:05;;;;;;;27.80;18.38;;;10.10;99.90;;;;;;5078392;28;20028;-64
2024/02/11 14:09:53;;;;;;;32.58;21.10;;;10.10;99.90;;;;;;5087753;28;20045;-63